Time;durP1;ratioP1;P1;durP2;ratioP2;P2;SDS_P1;SDS_P2;PMS_P1;PMS_P2;Temp;Humidity;BMP_temperature;BMP_pressure;BME280_temperature;BME280_humidity;BME280_pressure;Samples;Min_cycle;Max_cycle;Signal;HPM_P1;HPM_P2
2021/01/08 00:00:06;;;;;;;3.53;3.23;;;22.50;52.90;;;;;;5096065;28;20906;-68
2021/01/08 00:02:31;;;;;;;4.17;3.20;;;22.50;52.90;;;;;;5095948;28;20201;-70
2021/01/08 00:04:57;;;;;;;4.60;3.83;;;22.50;52.90;;;;;;5095983;28;20777;-69
2021/01/08 00:07:23;;;;;;;4.00;2.93;;;22.50;52.90;;;;;;5095862;28;20229;-70
2021/01/08 00:09:48;;;;;;;4.47;4.07;;;22.50;52.90;;;;;;5095894;28;20165;-70
2021/01/08 00:12:14;;;;;;;3.23;2.93;;;22.50;52.90;;;;;;5095837;28;20264;-70
2021/01/08 00:14:39;;;;;;;4.37;3.30;;;22.40;52.90;;;;;;5095994;28;20169;-70
2021/01/08 00:17:05;;;;;;;3.30;3.00;;;22.50;53.00;;;;;;5096235;28;20193;-70
2021/01/08 00:19:30;;;;;;;3.60;3.03;;;22.40;52.90;;;;;;5095977;28;20671;-70
2021/01/08 00:21:56;;;;;;;3.70;3.30;;;22.40;53.00;;;;;;5095809;28;20605;-70
2021/01/08 00:24:22;;;;;;;4.50;3.37;;;22.40;52.90;;;;;;5095911;28;20620;-67
2021/01/08 00:26:48;;;;;;;3.73;3.40;;;22.40;52.90;;;;;;5096046;28;20166;-69
2021/01/08 00:29:15;;;;;;;3.87;3.13;;;22.40;53.00;;;;;;5095581;28;20173;-70
2021/01/08 00:31:43;;;;;;;3.20;3.00;;;22.40;53.00;;;;;;5095396;28;20207;-69
2021/01/08 00:34:10;;;;;;;3.37;3.07;;;22.40;53.00;;;;;;5095658;28;20423;-70
2021/01/08 00:36:36;;;;;;;3.13;2.83;;;22.40;53.00;;;;;;5095308;28;20431;-69
2021/01/08 00:39:04;;;;;;;3.10;2.77;;;22.30;52.90;;;;;;5095328;28;20384;-69
2021/01/08 00:41:34;;;;;;;3.20;2.90;;;22.30;53.00;;;;;;5095290;28;20682;-70
2021/01/08 00:44:03;;;;;;;3.50;3.20;;;22.30;53.00;;;;;;5095124;28;20403;-70
2021/01/08 00:46:36;;;;;;;3.30;3.00;;;22.30;53.00;;;;;;5095180;28;20411;-70
2021/01/08 00:49:08;;;;;;;3.50;3.03;;;22.30;53.40;;;;;;5095177;28;20951;-70
2021/01/08 00:51:35;;;;;;;3.53;3.20;;;22.30;53.10;;;;;;5095043;28;20773;-69
2021/01/08 00:54:01;;;;;;;3.67;2.83;;;22.30;53.10;;;;;;5094351;28;20403;-70
2021/01/08 00:56:27;;;;;;;6.80;3.30;;;22.30;53.10;;;;;;5095015;28;20729;-70
2021/01/08 00:58:53;;;;;;;3.43;2.90;;;22.30;53.10;;;;;;5094859;28;20424;-70
2021/01/08 01:01:20;;;;;;;3.27;2.97;;;22.30;53.00;;;;;;5095095;28;20809;-70
2021/01/08 01:03:46;;;;;;;3.37;3.00;;;22.30;53.00;;;;;;5094836;28;20435;-70
2021/01/08 01:06:12;;;;;;;3.50;3.20;;;22.30;53.10;;;;;;5094813;28;20487;-69
2021/01/08 01:08:38;;;;;;;4.80;3.00;;;22.30;53.00;;;;;;5094971;28;20507;-70
2021/01/08 01:11:04;;;;;;;3.07;2.87;;;22.30;53.00;;;;;;5094968;28;20400;-70
2021/01/08 01:13:30;;;;;;;3.57;2.37;;;22.30;53.00;;;;;;5094801;28;20182;-70
2021/01/08 01:15:56;;;;;;;4.73;3.13;;;22.30;53.00;;;;;;5094839;28;20412;-69
2021/01/08 01:18:22;;;;;;;3.77;3.20;;;22.30;53.10;;;;;;5095102;28;20254;-70
2021/01/08 01:20:48;;;;;;;3.20;2.90;;;22.20;53.00;;;;;;5094481;28;20418;-70
2021/01/08 01:23:14;;;;;;;3.70;3.37;;;22.30;53.10;;;;;;5094679;28;20528;-69
2021/01/08 01:25:40;;;;;;;2.97;2.70;;;22.30;53.10;;;;;;5094654;28;20829;-70
2021/01/08 01:28:05;;;;;;;2.90;2.60;;;22.30;53.10;;;;;;5094564;28;20459;-70
2021/01/08 01:30:32;;;;;;;3.30;3.00;;;22.30;53.00;;;;;;5094334;28;20170;-69
2021/01/08 01:32:58;;;;;;;3.60;3.23;;;22.20;52.90;;;;;;5094591;28;20170;-70
2021/01/08 01:35:24;;;;;;;3.10;2.80;;;22.20;52.90;;;;;;5094120;28;20411;-70
2021/01/08 01:37:51;;;;;;;3.00;2.70;;;22.30;53.00;;;;;;5092864;28;21034;-70
2021/01/08 01:40:18;;;;;;;3.80;3.50;;;22.30;53.00;;;;;;5094386;28;20419;-69
2021/01/08 01:42:43;;;;;;;3.90;3.00;;;22.20;52.90;;;;;;5093902;28;20456;-70
2021/01/08 01:45:09;;;;;;;3.50;3.03;;;22.20;52.90;;;;;;5094022;28;20427;-70
2021/01/08 01:47:35;;;;;;;4.97;3.10;;;22.20;53.00;;;;;;5093982;28;20189;-69
2021/01/08 01:50:02;;;;;;;4.63;3.63;;;22.20;53.00;;;;;;5093926;28;20219;-69
2021/01/08 01:52:28;;;;;;;3.30;3.00;;;22.20;53.00;;;;;;5094136;28;20631;-69
2021/01/08 01:54:54;;;;;;;3.07;2.77;;;22.20;53.00;;;;;;5093940;28;20408;-69
2021/01/08 01:57:19;;;;;;;3.63;3.30;;;22.20;53.00;;;;;;5093997;28;20435;-70
2021/01/08 01:59:45;;;;;;;5.80;2.90;;;22.20;53.00;;;;;;5093852;28;20544;-69
2021/01/08 02:02:34;;;;;;;2.97;2.67;;;22.20;53.00;;;;;;5093877;28;20592;-69
2021/01/08 02:05:04;;;;;;;3.37;3.07;;;22.20;53.00;;;;;;5063145;28;20830;-69
2021/01/08 02:07:32;;;;;;;2.73;2.40;;;22.20;53.00;;;;;;5093897;28;20443;-69
2021/01/08 02:10:01;;;;;;;3.33;2.70;;;22.20;53.00;;;;;;5093578;28;20412;-69
2021/01/08 02:12:27;;;;;;;2.83;2.60;;;22.10;53.00;;;;;;5093535;28;20419;-69
2021/01/08 02:14:54;;;;;;;4.10;3.33;;;22.20;53.00;;;;;;5093519;28;20403;-69
2021/01/08 02:17:21;;;;;;;3.47;2.80;;;22.20;53.10;;;;;;5093464;28;20496;-69
2021/01/08 02:19:51;;;;;;;2.90;2.63;;;22.20;53.10;;;;;;5093726;28;20777;-69
2021/01/08 02:22:46;;;;;;;3.30;2.73;;;22.10;53.00;;;;;;5093630;28;20447;-70
2021/01/08 02:25:25;;;;;;;3.13;2.90;;;22.20;53.10;;;;;;5093347;28;20399;-70
2021/01/08 02:28:16;;;;;;;2.80;2.50;;;22.10;53.10;;;;;;5093542;28;20473;-70
2021/01/08 02:30:44;;;;;;;3.13;2.87;;;22.10;53.00;;;;;;5092134;28;20408;-70
2021/01/08 02:33:10;;;;;;;3.10;2.57;;;22.10;53.10;;;;;;5093566;28;20416;-69
2021/01/08 02:35:36;;;;;;;3.57;2.50;;;22.10;53.00;;;;;;5093475;28;20391;-69
2021/01/08 02:38:02;;;;;;;2.70;2.50;;;22.10;53.00;;;;;;5093104;28;20536;-69
2021/01/08 02:40:28;;;;;;;3.37;2.73;;;22.10;53.00;;;;;;5093281;28;20418;-69
2021/01/08 02:43:05;;;;;;;2.63;2.43;;;22.20;53.10;;;;;;5091522;28;20460;-69
2021/01/08 02:45:32;;;;;;;3.00;2.70;;;22.10;53.00;;;;;;5093206;28;20404;-70
2021/01/08 02:47:58;;;;;;;2.47;2.27;;;22.20;53.10;;;;;;5093119;28;20518;-70
2021/01/08 02:50:25;;;;;;;2.40;2.20;;;22.10;53.00;;;;;;5093126;28;20442;-69
2021/01/08 02:53:03;;;;;;;2.63;2.43;;;22.10;53.00;;;;;;5093092;28;20404;-70
2021/01/08 02:55:31;;;;;;;4.03;2.90;;;22.20;53.00;;;;;;5093380;28;20424;-68
2021/01/08 02:58:02;;;;;;;3.20;2.43;;;22.10;52.90;;;;;;5093129;28;20514;-70
2021/01/08 03:00:30;;;;;;;2.57;2.37;;;22.10;52.90;;;;;;5093555;28;20894;-70
2021/01/08 03:02:57;;;;;;;3.47;2.40;;;22.10;52.90;;;;;;5092648;28;20452;-70
2021/01/08 03:05:27;;;;;;;3.13;2.83;;;22.10;53.00;;;;;;5093284;28;20774;-70
2021/01/08 03:07:53;;;;;;;2.93;2.47;;;22.10;52.90;;;;;;5093093;28;20466;-70
2021/01/08 03:10:18;;;;;;;2.53;2.33;;;22.10;52.90;;;;;;5092925;28;20436;-69
2021/01/08 03:12:53;;;;;;;2.90;2.27;;;22.10;53.00;;;;;;5093156;28;20591;-70
2021/01/08 03:15:19;;;;;;;2.60;2.40;;;22.10;53.00;;;;;;5091720;28;20208;-70
2021/01/08 03:17:45;;;;;;;3.03;2.73;;;22.10;53.00;;;;;;5096810;28;20435;-69
2021/01/08 03:20:11;;;;;;;3.50;2.60;;;22.10;53.00;;;;;;5097154;28;20574;-69
2021/01/08 03:22:36;;;;;;;4.70;2.63;;;22.10;53.00;;;;;;5096685;28;20205;-70
2021/01/08 03:25:02;;;;;;;2.43;2.17;;;22.10;53.10;;;;;;5097017;28;20769;-70
2021/01/08 03:27:28;;;;;;;2.53;2.33;;;22.00;52.90;;;;;;5096830;28;20201;-70
2021/01/08 03:29:53;;;;;;;2.70;2.37;;;22.10;53.00;;;;;;5096699;28;20426;-70
2021/01/08 03:32:19;;;;;;;2.90;2.63;;;22.10;53.00;;;;;;5096682;28;20191;-70
2021/01/08 03:34:45;;;;;;;2.87;2.53;;;22.00;52.90;;;;;;5095343;28;20181;-70
2021/01/08 03:37:10;;;;;;;2.43;2.23;;;22.00;53.00;;;;;;5096467;28;20221;-70
2021/01/08 03:39:36;;;;;;;2.63;2.43;;;22.10;53.10;;;;;;5096304;28;20182;-70
2021/01/08 03:42:01;;;;;;;2.67;2.43;;;22.00;53.00;;;;;;5096596;28;20232;-70
2021/01/08 03:44:27;;;;;;;2.90;2.70;;;22.00;53.00;;;;;;5096656;28;20188;-69
2021/01/08 03:46:52;;;;;;;2.33;2.07;;;22.00;53.00;;;;;;5094997;28;20178;-70
2021/01/08 03:49:18;;;;;;;2.53;2.30;;;22.00;53.10;;;;;;5096192;28;20181;-70
2021/01/08 03:51:43;;;;;;;2.47;2.27;;;22.00;53.20;;;;;;5096272;28;20177;-69
2021/01/08 03:54:09;;;;;;;3.30;2.70;;;21.90;53.10;;;;;;5095946;28;20254;-69
2021/01/08 03:56:35;;;;;;;2.47;2.27;;;21.90;53.10;;;;;;5096151;28;20181;-70
2021/01/08 03:59:01;;;;;;;2.30;2.07;;;21.90;53.00;;;;;;5096007;28;20423;-70
2021/01/08 04:01:26;;;;;;;2.47;2.27;;;21.90;53.10;;;;;;5095964;28;20648;-70
2021/01/08 04:03:52;;;;;;;2.30;2.10;;;22.00;53.10;;;;;;5096018;28;20165;-69
2021/01/08 04:06:17;;;;;;;2.70;2.20;;;22.00;53.10;;;;;;5096038;28;20197;-70
2021/01/08 04:08:43;;;;;;;2.43;2.23;;;21.90;53.00;;;;;;5095861;28;20193;-69
2021/01/08 04:11:09;;;;;;;3.60;2.50;;;21.90;53.00;;;;;;5095696;28;20239;-69
2021/01/08 04:13:34;;;;;;;2.90;2.53;;;22.00;53.00;;;;;;5096002;28;20174;-70
2021/01/08 04:16:00;;;;;;;2.17;1.97;;;21.90;53.00;;;;;;5096034;28;20201;-70
2021/01/08 04:18:25;;;;;;;2.30;2.10;;;21.90;53.00;;;;;;5095963;28;20193;-70
2021/01/08 04:20:51;;;;;;;2.97;2.30;;;21.90;53.10;;;;;;5095950;28;20205;-70
2021/01/08 04:23:16;;;;;;;2.93;2.40;;;21.90;53.10;;;;;;5095537;28;20201;-70
2021/01/08 04:25:42;;;;;;;2.90;2.70;;;21.90;53.00;;;;;;5096122;28;20168;-70
2021/01/08 04:28:08;;;;;;;3.10;2.47;;;21.90;53.00;;;;;;5094394;28;20200;-69
2021/01/08 04:30:33;;;;;;;2.63;2.10;;;21.90;53.00;;;;;;5096091;28;20176;-70
2021/01/08 04:32:59;;;;;;;2.53;2.27;;;21.90;53.00;;;;;;5095481;28;20174;-70
2021/01/08 04:35:24;;;;;;;2.60;2.40;;;21.90;53.00;;;;;;5095409;28;20169;-70
2021/01/08 04:37:50;;;;;;;3.20;1.70;;;21.90;53.00;;;;;;5095231;28;20224;-70
2021/01/08 04:40:16;;;;;;;2.73;1.90;;;21.90;53.00;;;;;;5095591;28;20182;-69
2021/01/08 04:42:41;;;;;;;2.67;2.30;;;21.90;53.00;;;;;;5093541;28;20866;-70
2021/01/08 04:45:07;;;;;;;2.03;1.83;;;21.90;53.00;;;;;;5095201;28;20178;-70
2021/01/08 04:47:33;;;;;;;3.00;2.40;;;21.90;53.10;;;;;;5095362;28;20284;-70
2021/01/08 04:50:03;;;;;;;2.33;2.13;;;21.90;53.20;;;;;;5094941;28;20533;-70
2021/01/08 04:52:31;;;;;;;2.67;2.10;;;21.80;53.10;;;;;;5095159;28;20412;-70
2021/01/08 04:54:57;;;;;;;2.67;2.47;;;21.90;53.10;;;;;;5095058;28;20495;-70
2021/01/08 04:57:24;;;;;;;2.30;2.00;;;21.80;53.10;;;;;;5095220;28;20535;-69
2021/01/08 04:59:50;;;;;;;2.33;2.13;;;21.80;53.10;;;;;;5094883;28;20588;-70
2021/01/08 05:02:16;;;;;;;2.80;2.13;;;21.80;53.10;;;;;;5095017;28;21044;-70
2021/01/08 05:04:43;;;;;;;2.47;2.17;;;21.80;53.10;;;;;;5094863;28;20433;-69
2021/01/08 05:07:08;;;;;;;2.33;2.13;;;21.80;53.20;;;;;;5094782;28;20431;-70
2021/01/08 05:09:34;;;;;;;2.47;2.23;;;21.80;53.20;;;;;;5095561;28;20408;-70
2021/01/08 05:12:00;;;;;;;2.20;2.00;;;21.70;53.10;;;;;;5095021;28;20240;-69
2021/01/08 05:14:26;;;;;;;2.40;2.20;;;21.80;53.30;;;;;;5094925;28;20700;-70
2021/01/08 05:16:55;;;;;;;2.37;2.07;;;21.70;53.20;;;;;;5094764;28;20469;-70
2021/01/08 05:19:26;;;;;;;2.53;2.10;;;21.70;53.20;;;;;;5094528;28;20423;-70
2021/01/08 05:21:55;;;;;;;2.37;2.17;;;21.70;53.30;;;;;;5093175;28;20525;-70
2021/01/08 05:24:24;;;;;;;4.40;2.23;;;21.70;53.30;;;;;;5093228;28;20412;-70
2021/01/08 05:26:50;;;;;;;2.60;1.80;;;21.70;53.20;;;;;;5094331;28;20410;-70
2021/01/08 05:29:16;;;;;;;1.90;1.70;;;21.70;53.20;;;;;;5094555;28;20412;-69
2021/01/08 05:31:42;;;;;;;2.47;2.00;;;21.70;53.10;;;;;;5094301;28;20781;-69
2021/01/08 05:34:08;;;;;;;2.57;2.07;;;21.80;53.20;;;;;;5095108;28;20223;-69
2021/01/08 05:36:36;;;;;;;2.87;2.10;;;21.70;53.10;;;;;;5094121;28;20451;-70
2021/01/08 05:39:04;;;;;;;2.30;2.10;;;21.80;53.10;;;;;;5094535;28;20420;-70
2021/01/08 05:41:31;;;;;;;2.27;1.97;;;21.80;53.10;;;;;;5094581;28;20879;-69
2021/01/08 05:43:58;;;;;;;2.67;2.10;;;21.80;53.00;;;;;;5094102;28;20419;-70
2021/01/08 05:46:30;;;;;;;2.37;1.97;;;21.80;53.00;;;;;;5094558;28;20496;-69
2021/01/08 05:49:01;;;;;;;2.00;1.63;;;21.80;53.10;;;;;;5094265;28;20451;-69
2021/01/08 05:51:31;;;;;;;2.40;2.00;;;21.80;53.10;;;;;;5093923;28;20905;-69
2021/01/08 05:54:00;;;;;;;2.40;2.20;;;21.80;53.00;;;;;;5093857;28;20468;-69
2021/01/08 05:56:27;;;;;;;2.30;2.10;;;21.80;53.00;;;;;;5093845;28;20404;-69
2021/01/08 05:58:54;;;;;;;2.17;1.97;;;21.90;53.10;;;;;;5093715;28;20506;-69
2021/01/08 06:01:20;;;;;;;2.17;1.97;;;21.90;53.00;;;;;;5093739;28;20415;-69
2021/01/08 06:03:46;;;;;;;2.70;2.00;;;21.90;53.00;;;;;;5093698;28;20459;-69
2021/01/08 06:06:12;;;;;;;2.07;1.70;;;21.90;53.00;;;;;;5094004;28;20249;-69
2021/01/08 06:08:49;;;;;;;2.00;1.60;;;21.90;53.00;;;;;;5093618;28;20424;-69
2021/01/08 06:11:28;;;;;;;2.40;2.20;;;21.90;53.00;;;;;;5093949;28;20384;-67
2021/01/08 06:13:58;;;;;;;1.70;1.60;;;21.90;52.90;;;;;;5093891;28;20788;-68
2021/01/08 06:16:23;;;;;;;2.30;1.60;;;21.90;52.90;;;;;;5093844;28;20754;-69
2021/01/08 06:18:54;;;;;;;2.37;1.73;;;21.90;52.90;;;;;;5093449;28;20419;-69
2021/01/08 06:21:33;;;;;;;2.20;2.00;;;21.90;52.90;;;;;;5093480;28;20681;-69
2021/01/08 06:23:59;;;;;;;2.20;2.00;;;21.90;52.90;;;;;;5093482;28;20474;-69
2021/01/08 06:26:27;;;;;;;1.93;1.77;;;21.90;52.90;;;;;;5093397;28;20421;-68
2021/01/08 06:29:00;;;;;;;2.30;1.53;;;22.00;53.00;;;;;;5074871;28;20241;-68
2021/01/08 06:31:35;;;;;;;2.73;1.50;;;22.00;53.00;;;;;;5093614;28;20380;-69
2021/01/08 06:34:02;;;;;;;2.73;1.63;;;22.00;52.90;;;;;;5093649;28;20409;-69
2021/01/08 06:36:33;;;;;;;2.10;1.60;;;22.00;52.90;;;;;;5093350;28;20488;-69
2021/01/08 06:39:11;;;;;;;1.90;1.40;;;22.00;52.90;;;;;;5093213;28;20435;-69
2021/01/08 06:41:39;;;;;;;1.80;1.50;;;22.00;52.90;;;;;;5093198;28;20912;-69
2021/01/08 06:44:06;;;;;;;2.13;1.87;;;22.00;52.80;;;;;;5092989;28;20426;-69
2021/01/08 06:46:39;;;;;;;1.63;1.53;;;22.00;52.80;;;;;;5091887;28;20419;-68
2021/01/08 06:49:07;;;;;;;2.10;1.90;;;22.00;52.90;;;;;;5093115;28;20444;-68
2021/01/08 06:51:37;;;;;;;2.33;2.00;;;21.90;52.70;;;;;;5096363;28;20514;-68
2021/01/08 06:54:11;;;;;;;2.03;1.70;;;22.00;52.80;;;;;;5099968;28;20411;-69
2021/01/08 06:56:37;;;;;;;1.63;1.53;;;22.00;52.80;;;;;;5100096;28;20500;-68
2021/01/08 06:59:11;;;;;;;2.57;2.07;;;21.90;52.70;;;;;;5099762;28;20823;-68
2021/01/08 07:01:54;;;;;;;1.93;1.83;;;22.00;53.30;;;;;;5099913;28;20817;-68
2021/01/08 07:04:25;;;;;;;2.23;1.97;;;22.00;52.80;;;;;;5100031;28;20399;-68
2021/01/08 07:06:55;;;;;;;2.77;2.23;;;22.00;52.80;;;;;;5099643;28;20540;-67
2021/01/08 07:09:29;;;;;;;1.70;1.60;;;22.00;52.80;;;;;;5099754;28;20414;-68
2021/01/08 07:11:55;;;;;;;7.60;4.57;;;22.00;52.80;;;;;;5099656;28;20391;-69
2021/01/08 07:14:22;;;;;;;9.27;5.77;;;22.00;52.70;;;;;;5099908;28;20422;-68
2021/01/08 07:16:53;;;;;;;8.07;5.57;;;21.90;51.90;;;;;;5099888;28;20659;-68
2021/01/08 07:19:21;;;;;;;6.20;4.27;;;21.80;51.40;;;;;;5098283;28;20431;-69
2021/01/08 07:21:49;;;;;;;7.20;4.33;;;21.80;51.30;;;;;;5099731;28;20433;-69
2021/01/08 07:24:22;;;;;;;5.73;3.20;;;21.80;51.40;;;;;;5098229;28;20439;-68
2021/01/08 07:26:48;;;;;;;4.57;3.37;;;21.80;51.50;;;;;;5099804;28;20461;-68
2021/01/08 07:29:15;;;;;;;4.07;2.77;;;21.80;51.40;;;;;;5099554;28;20916;-69
2021/01/08 07:31:41;;;;;;;4.30;2.73;;;21.80;51.50;;;;;;5099748;28;20407;-69
2021/01/08 07:34:09;;;;;;;3.80;2.70;;;21.80;51.50;;;;;;5099542;28;20392;-69
2021/01/08 07:36:36;;;;;;;3.00;2.50;;;21.90;51.60;;;;;;5099337;28;20423;-69
2021/01/08 07:39:05;;;;;;;2.93;2.40;;;21.80;51.60;;;;;;5099635;28;20435;-69
2021/01/08 07:41:37;;;;;;;3.27;2.27;;;21.90;51.70;;;;;;5098260;28;20470;-68
2021/01/08 07:44:04;;;;;;;3.60;2.67;;;21.90;51.70;;;;;;5099586;28;20417;-69
2021/01/08 07:46:33;;;;;;;4.43;2.37;;;21.80;51.60;;;;;;5099889;28;20444;-68
2021/01/08 07:49:02;;;;;;;5.80;2.77;;;21.90;51.70;;;;;;5099273;28;20418;-68
2021/01/08 07:51:47;;;;;;;5.20;2.30;;;21.90;51.80;;;;;;5099374;28;20407;-69
2021/01/08 07:54:13;;;;;;;3.03;2.20;;;21.90;51.70;;;;;;5099595;28;20392;-71
2021/01/08 07:57:05;;;;;;;3.67;2.40;;;21.90;51.80;;;;;;5099037;28;20835;-68
2021/01/08 07:59:31;;;;;;;3.57;2.77;;;21.90;51.80;;;;;;5099493;28;20954;-67
2021/01/08 08:01:57;;;;;;;3.07;2.33;;;21.90;51.90;;;;;;5098207;28;20451;-69
2021/01/08 08:04:26;;;;;;;4.50;2.53;;;21.90;51.90;;;;;;5095913;28;20408;-68
2021/01/08 08:06:53;;;;;;;3.77;2.50;;;21.90;51.90;;;;;;5096171;28;20181;-68
2021/01/08 08:09:20;;;;;;;2.20;2.00;;;21.90;51.90;;;;;;5095888;28;20419;-71
2021/01/08 08:11:46;;;;;;;3.97;2.30;;;22.00;51.90;;;;;;5095042;28;20400;-68
2021/01/08 08:14:17;;;;;;;3.97;2.50;;;21.90;51.90;;;;;;5095725;28;20468;-68
2021/01/08 08:16:43;;;;;;;3.30;2.60;;;21.90;51.90;;;;;;5096050;28;20383;-68
2021/01/08 08:19:11;;;;;;;5.50;2.60;;;21.90;51.90;;;;;;5095994;28;20807;-67
2021/01/08 08:21:57;;;;;;;2.80;2.00;;;22.00;51.90;;;;;;5095998;28;20384;-70
2021/01/08 08:24:26;;;;;;;3.53;2.40;;;22.00;51.80;;;;;;5094782;28;20376;-73
2021/01/08 08:26:52;;;;;;;3.47;2.67;;;22.00;51.90;;;;;;5095676;28;20440;-69
2021/01/08 08:29:18;;;;;;;2.80;2.03;;;22.00;51.90;;;;;;5094417;28;20492;-69
2021/01/08 08:31:46;;;;;;;4.00;2.10;;;22.00;51.90;;;;;;5094936;28;20406;-73
2021/01/08 08:34:33;;;;;;;3.10;2.30;;;22.00;51.80;;;;;;5095462;28;20457;-69
2021/01/08 08:37:08;;;;;;;3.23;2.17;;;22.00;51.80;;;;;;5094951;28;20524;-68
2021/01/08 08:39:34;;;;;;;2.70;2.20;;;22.00;51.80;;;;;;5077513;28;20750;-70
2021/01/08 08:42:00;;;;;;;2.63;2.10;;;22.10;52.50;;;;;;5095338;28;20450;-72
2021/01/08 08:44:26;;;;;;;4.90;2.37;;;22.00;51.90;;;;;;5095541;28;20422;-69
2021/01/08 08:46:56;;;;;;;4.90;2.30;;;22.00;51.90;;;;;;5095263;28;20843;-68
2021/01/08 08:49:33;;;;;;;2.50;2.30;;;22.10;52.00;;;;;;5095129;28;20182;-70
2021/01/08 08:51:59;;;;;;;2.40;2.10;;;22.10;51.90;;;;;;5095661;28;20380;-67
2021/01/08 08:54:25;;;;;;;2.40;1.77;;;22.10;51.90;;;;;;5094958;28;20773;-68
2021/01/08 08:56:53;;;;;;;3.30;2.20;;;22.10;51.90;;;;;;5093734;28;20890;-70
2021/01/08 08:59:41;;;;;;;3.47;2.63;;;22.10;51.90;;;;;;5095210;28;20503;-68
2021/01/08 09:02:09;;;;;;;2.70;1.80;;;22.10;51.90;;;;;;5094833;28;21008;-70
2021/01/08 09:04:35;;;;;;;2.80;2.23;;;22.10;52.50;;;;;;5094883;28;20396;-68
2021/01/08 09:07:18;;;;;;;2.13;1.93;;;22.10;52.00;;;;;;5095066;28;20876;-67
2021/01/08 09:09:46;;;;;;;3.57;2.30;;;22.10;52.00;;;;;;5096514;22;20579;-68
2021/01/08 09:12:16;;;;;;;2.43;2.00;;;22.10;52.10;;;;;;5074710;28;20790;-67
2021/01/08 09:14:48;;;;;;;2.40;1.60;;;22.10;52.10;;;;;;5074103;28;20393;-68
2021/01/08 09:17:21;;;;;;;2.70;2.07;;;22.10;52.20;;;;;;5074496;28;20837;-67
2021/01/08 09:19:51;;;;;;;2.37;2.17;;;22.20;52.20;;;;;;5074552;28;20388;-69
2021/01/08 09:22:17;;;;;;;2.33;1.97;;;22.20;52.20;;;;;;5073911;28;20444;-66
2021/01/08 09:24:46;;;;;;;3.90;3.10;;;22.20;52.20;;;;;;5074149;28;20871;-66
2021/01/08 09:27:12;;;;;;;3.23;1.77;;;22.20;52.20;;;;;;5074359;28;20868;-69
2021/01/08 09:29:38;;;;;;;2.40;1.90;;;22.20;52.10;;;;;;5072778;28;20431;-69
2021/01/08 09:32:05;;;;;;;3.03;2.13;;;22.20;52.10;;;;;;5073978;28;20408;-69
2021/01/08 09:34:31;;;;;;;2.83;2.10;;;22.20;52.10;;;;;;5074267;28;20413;-69
2021/01/08 09:36:58;;;;;;;2.77;2.07;;;22.20;52.10;;;;;;5073795;28;20965;-68
2021/01/08 09:39:28;;;;;;;3.10;1.87;;;22.30;52.20;;;;;;5073876;28;20405;-68
2021/01/08 09:41:58;;;;;;;2.70;1.97;;;22.30;52.20;;;;;;5074315;28;20385;-68
2021/01/08 09:44:31;;;;;;;3.80;1.90;;;22.30;52.20;;;;;;5073799;28;20416;-70
2021/01/08 09:47:04;;;;;;;4.60;2.30;;;22.30;52.10;;;;;;5073636;28;20508;-69
2021/01/08 09:49:43;;;;;;;2.93;2.03;;;22.40;52.20;;;;;;5073687;28;20407;-66
2021/01/08 09:52:11;;;;;;;4.33;1.90;;;22.40;52.20;;;;;;5073609;28;20419;-69
2021/01/08 09:54:46;;;;;;;2.13;1.83;;;22.40;52.20;;;;;;5073882;28;20500;-67
2021/01/08 09:57:35;;;;;;;3.40;1.70;;;22.40;52.20;;;;;;5073907;28;20486;-66
2021/01/08 10:00:07;;;;;;;4.93;2.20;;;22.40;52.30;;;;;;5073565;28;20426;-66
2021/01/08 10:02:48;;;;;;;2.80;1.67;;;22.40;52.40;;;;;;5073803;28;20435;-68
2021/01/08 10:05:19;;;;;;;2.20;1.90;;;22.40;52.30;;;;;;5073720;28;20437;-66
2021/01/08 10:07:46;;;;;;;2.63;2.43;;;22.40;52.20;;;;;;5072021;28;20476;-66
2021/01/08 10:10:17;;;;;;;4.40;1.90;;;22.40;52.30;;;;;;5073410;28;20511;-67
2021/01/08 10:12:47;;;;;;;2.30;1.60;;;22.40;52.20;;;;;;5072969;28;20427;-68
2021/01/08 10:15:14;;;;;;;4.33;2.33;;;22.40;52.20;;;;;;5073580;28;20454;-67
2021/01/08 10:17:50;;;;;;;3.50;2.03;;;22.40;52.20;;;;;;5073477;28;20943;-68
2021/01/08 10:20:18;;;;;;;2.80;2.00;;;22.50;52.30;;;;;;5070575;28;21010;-64
2021/01/08 10:22:48;;;;;;;2.40;2.00;;;22.50;52.30;;;;;;5073164;28;20943;-68
2021/01/08 10:25:40;;;;;;;3.93;2.10;;;22.50;52.30;;;;;;5072683;28;20890;-66
2021/01/08 10:28:23;;;;;;;6.40;1.97;;;22.50;52.30;;;;;;5071431;28;20486;-69
2021/01/08 10:30:55;;;;;;;3.13;2.13;;;22.50;52.30;;;;;;5073312;28;20884;-67
2021/01/08 10:33:25;;;;;;;3.33;2.27;;;22.50;52.40;;;;;;5073032;28;20949;-70
2021/01/08 10:35:52;;;;;;;5.17;2.37;;;22.50;52.50;;;;;;5073110;28;20926;-70
2021/01/08 10:38:18;;;;;;;4.83;2.43;;;22.50;52.40;;;;;;5071692;28;20489;-69
2021/01/08 10:40:44;;;;;;;5.10;1.93;;;22.50;52.40;;;;;;5072951;28;20412;-69
2021/01/08 10:43:10;;;;;;;2.57;1.73;;;22.50;52.30;;;;;;5072979;28;20947;-71
2021/01/08 10:45:39;;;;;;;3.37;2.47;;;22.50;52.30;;;;;;5071452;28;20467;-76
2021/01/08 10:48:06;;;;;;;3.87;2.07;;;22.50;52.30;;;;;;5073123;28;20255;-67
2021/01/08 10:50:32;;;;;;;2.73;1.90;;;22.50;52.30;;;;;;5073212;28;20438;-69
2021/01/08 10:52:59;;;;;;;3.30;1.80;;;22.50;52.30;;;;;;5072861;28;20446;-69
2021/01/08 10:55:24;;;;;;;3.20;2.10;;;22.50;52.40;;;;;;5072824;28;20408;-69
2021/01/08 10:57:50;;;;;;;2.40;1.83;;;22.50;52.40;;;;;;5072956;28;20439;-66
2021/01/08 11:00:21;;;;;;;3.00;2.00;;;22.40;52.30;;;;;;5073398;28;20169;-65
2021/01/08 11:02:46;;;;;;;1.80;1.47;;;22.40;52.30;;;;;;5072805;28;20583;-67
2021/01/08 11:05:12;;;;;;;2.87;1.73;;;22.40;52.30;;;;;;5072706;28;20427;-70
2021/01/08 11:07:38;;;;;;;3.03;1.90;;;22.40;52.30;;;;;;5072937;28;20186;-72
2021/01/08 11:10:05;;;;;;;2.20;1.87;;;22.40;52.30;;;;;;5072635;28;20803;-69
2021/01/08 11:12:34;;;;;;;2.27;1.53;;;22.40;52.30;;;;;;5072867;28;20185;-69
2021/01/08 11:15:01;;;;;;;2.93;1.77;;;22.40;52.30;;;;;;5072912;28;20444;-70
2021/01/08 11:17:27;;;;;;;3.67;1.70;;;22.40;52.30;;;;;;5072526;28;20993;-70
2021/01/08 11:19:53;;;;;;;1.90;1.53;;;22.40;52.40;;;;;;5071357;28;20428;-68
2021/01/08 11:22:18;;;;;;;2.73;2.00;;;22.40;52.40;;;;;;5072854;28;20323;-70
2021/01/08 11:24:44;;;;;;;2.37;1.60;;;22.40;52.40;;;;;;5072583;28;20634;-69
2021/01/08 11:27:10;;;;;;;1.60;1.50;;;22.40;52.40;;;;;;5072488;28;20190;-70
2021/01/08 11:29:35;;;;;;;2.63;2.00;;;22.40;52.40;;;;;;5072847;28;20232;-69
2021/01/08 11:32:01;;;;;;;2.57;1.60;;;22.40;52.40;;;;;;5072891;28;20173;-76
2021/01/08 11:34:27;;;;;;;2.00;1.53;;;22.40;52.40;;;;;;5071173;28;20265;-67
2021/01/08 11:36:59;;;;;;;3.03;1.80;;;22.40;52.40;;;;;;5073586;28;20208;-67
2021/01/08 11:39:24;;;;;;;1.97;1.53;;;22.40;52.40;;;;;;5076213;28;20182;-67
2021/01/08 11:41:54;;;;;;;2.03;1.67;;;22.40;52.40;;;;;;5076457;28;20395;-67
2021/01/08 11:44:21;;;;;;;1.93;1.53;;;22.40;52.40;;;;;;5075289;28;20674;-67
2021/01/08 11:46:48;;;;;;;1.93;1.43;;;22.40;52.40;;;;;;5076528;28;20393;-67
2021/01/08 11:49:15;;;;;;;1.73;1.50;;;22.40;52.40;;;;;;5074799;28;20416;-67
2021/01/08 11:51:40;;;;;;;1.63;1.40;;;22.40;52.40;;;;;;5076260;28;20780;-69
2021/01/08 11:54:06;;;;;;;2.00;1.73;;;22.40;52.40;;;;;;5076134;28;20423;-70
2021/01/08 11:56:32;;;;;;;1.60;1.40;;;22.40;52.50;;;;;;5076188;28;20201;-72
2021/01/08 11:58:57;;;;;;;1.77;1.27;;;22.40;52.40;;;;;;5075706;28;20194;-68
2021/01/08 12:01:27;;;;;;;2.10;1.57;;;22.40;52.40;;;;;;5075874;28;20409;-69
2021/01/08 12:03:53;;;;;;;2.20;1.80;;;22.40;52.40;;;;;;5075823;28;20334;-69
2021/01/08 12:06:27;;;;;;;1.57;1.20;;;22.40;52.40;;;;;;5075973;28;20444;-68
2021/01/08 12:08:53;;;;;;;1.67;1.27;;;22.40;52.40;;;;;;5075590;28;20784;-68
2021/01/08 12:11:19;;;;;;;2.20;1.40;;;22.40;52.40;;;;;;5075746;28;20433;-69
2021/01/08 12:13:44;;;;;;;1.60;1.30;;;22.40;52.40;;;;;;5075860;28;20413;-68
2021/01/08 12:16:10;;;;;;;3.77;1.73;;;22.40;52.40;;;;;;5075669;28;20550;-68
2021/01/08 12:18:36;;;;;;;1.80;1.53;;;22.40;52.40;;;;;;5075586;28;20202;-69
2021/01/08 12:21:05;;;;;;;2.00;1.33;;;22.40;52.40;;;;;;5075670;28;20622;-68
2021/01/08 12:23:30;;;;;;;1.97;1.60;;;22.40;52.40;;;;;;5075564;28;20529;-75
2021/01/08 12:25:56;;;;;;;2.13;1.50;;;22.40;52.40;;;;;;5075474;28;20488;-70
2021/01/08 12:28:22;;;;;;;1.90;1.57;;;22.40;52.40;;;;;;5075305;28;20248;-68
2021/01/08 12:30:48;;;;;;;1.50;1.30;;;22.40;52.40;;;;;;5074064;28;20174;-67
2021/01/08 12:33:13;;;;;;;1.60;1.40;;;22.40;52.40;;;;;;5075229;28;20182;-66
2021/01/08 12:35:39;;;;;;;2.27;1.50;;;22.40;52.40;;;;;;5075216;28;20217;-70
2021/01/08 12:38:04;;;;;;;2.20;1.40;;;22.40;52.50;;;;;;5073832;28;20602;-69
2021/01/08 12:40:30;;;;;;;2.40;1.43;;;22.40;52.50;;;;;;5075195;28;20244;-68
2021/01/08 12:42:55;;;;;;;2.73;1.73;;;22.40;52.50;;;;;;5075206;28;20664;-67
2021/01/08 12:45:22;;;;;;;1.40;1.20;;;22.40;52.50;;;;;;5075028;28;20171;-68
2021/01/08 12:47:48;;;;;;;1.90;1.40;;;22.30;52.40;;;;;;5074866;28;20186;-67
2021/01/08 12:50:14;;;;;;;1.77;1.30;;;22.30;52.40;;;;;;5074349;28;20405;-65
2021/01/08 12:52:41;;;;;;;1.80;1.50;;;22.30;52.40;;;;;;5075234;28;20412;-67